sensor_id;sensor_type;location;lat;lon;timestamp;temperature;humidity
41694;DHT22;27377;50.666;9.150;2023-02-28T00:02:20;0.70;99.90
41694;DHT22;27377;50.666;9.150;2023-02-28T00:04:45;0.70;99.90
41694;DHT22;27377;50.666;9.150;2023-02-28T00:07:18;0.60;99.90
41694;DHT22;27377;50.666;9.150;2023-02-28T00:09:43;0.60;99.90
41694;DHT22;27377;50.666;9.150;2023-02-28T00:12:09;0.50;99.90
41694;DHT22;27377;50.666;9.150;2023-02-28T00:14:36;0.50;99.90
41694;DHT22;27377;50.666;9.150;2023-02-28T00:17:02;0.50;99.90
41694;DHT22;27377;50.666;9.150;2023-02-28T00:19:27;0.50;99.90
41694;DHT22;27377;50.666;9.150;2023-02-28T00:21:53;0.40;99.90
41694;DHT22;27377;50.666;9.150;2023-02-28T00:24:18;0.40;99.90
41694;DHT22;27377;50.666;9.150;2023-02-28T00:26:44;0.40;99.90
41694;DHT22;27377;50.666;9.150;2023-02-28T00:29:09;0.30;99.90
41694;DHT22;27377;50.666;9.150;2023-02-28T00:31:35;0.20;99.90
41694;DHT22;27377;50.666;9.150;2023-02-28T00:34:01;0.20;99.90
41694;DHT22;27377;50.666;9.150;2023-02-28T00:36:26;0.10;99.90
41694;DHT22;27377;50.666;9.150;2023-02-28T00:38:52;0.10;99.90
41694;DHT22;27377;50.666;9.150;2023-02-28T00:41:18;0.00;99.90
41694;DHT22;27377;50.666;9.150;2023-02-28T00:43:43;0.00;99.90
41694;DHT22;27377;50.666;9.150;2023-02-28T00:46:09;0.00;99.90
41694;DHT22;27377;50.666;9.150;2023-02-28T00:48:35;0.00;99.90
41694;DHT22;27377;50.666;9.150;2023-02-28T00:51:01;0.00;99.90
41694;DHT22;27377;50.666;9.150;2023-02-28T00:53:27;0.00;99.90
41694;DHT22;27377;50.666;9.150;2023-02-28T00:55:52;0.00;99.90
41694;DHT22;27377;50.666;9.150;2023-02-28T00:58:18;-0.10;99.90
41694;DHT22;27377;50.666;9.150;2023-02-28T01:00:44;-0.10;99.90
41694;DHT22;27377;50.666;9.150;2023-02-28T01:03:14;-0.20;99.90
41694;DHT22;27377;50.666;9.150;2023-02-28T01:05:40;-0.20;99.90
41694;DHT22;27377;50.666;9.150;2023-02-28T01:08:06;-0.20;99.90
41694;DHT22;27377;50.666;9.150;2023-02-28T01:10:32;-0.20;99.90
41694;DHT22;27377;50.666;9.150;2023-02-28T01:12:58;-0.30;99.90
41694;DHT22;27377;50.666;9.150;2023-02-28T01:15:23;-0.20;99.90
41694;DHT22;27377;50.666;9.150;2023-02-28T01:17:49;-0.30;99.90
41694;DHT22;27377;50.666;9.150;2023-02-28T01:20:15;-0.30;99.90
41694;DHT22;27377;50.666;9.150;2023-02-28T01:22:40;-0.30;99.90
41694;DHT22;27377;50.666;9.150;2023-02-28T01:25:06;-0.30;99.90
41694;DHT22;27377;50.666;9.150;2023-02-28T01:27:33;-0.30;99.90
41694;DHT22;27377;50.666;9.150;2023-02-28T01:29:58;-0.30;99.90
41694;DHT22;27377;50.666;9.150;2023-02-28T01:32:24;-0.30;99.90
41694;DHT22;27377;50.666;9.150;2023-02-28T01:34:49;-0.20;99.90
41694;DHT22;27377;50.666;9.150;2023-02-28T01:37:15;-0.30;99.90
41694;DHT22;27377;50.666;9.150;2023-02-28T01:39:40;-0.30;99.90
41694;DHT22;27377;50.666;9.150;2023-02-28T01:42:09;-0.30;99.90
41694;DHT22;27377;50.666;9.150;2023-02-28T01:44:55;-0.30;99.90
41694;DHT22;27377;50.666;9.150;2023-02-28T01:47:21;-0.30;99.90
41694;DHT22;27377;50.666;9.150;2023-02-28T01:49:48;-0.30;99.90
41694;DHT22;27377;50.666;9.150;2023-02-28T01:52:14;-0.30;99.90
41694;DHT22;27377;50.666;9.150;2023-02-28T01:54:46;-0.40;99.90
41694;DHT22;27377;50.666;9.150;2023-02-28T01:57:17;-0.40;99.90
41694;DHT22;27377;50.666;9.150;2023-02-28T01:59:57;-0.40;99.90
41694;DHT22;27377;50.666;9.150;2023-02-28T02:02:24;-0.40;99.90
41694;DHT22;27377;50.666;9.150;2023-02-28T02:04:54;-0.50;99.90
41694;DHT22;27377;50.666;9.150;2023-02-28T02:07:22;-0.50;99.90
41694;DHT22;27377;50.666;9.150;2023-02-28T02:09:48;-0.50;99.90
41694;DHT22;27377;50.666;9.150;2023-02-28T02:12:39;-0.50;99.90
41694;DHT22;27377;50.666;9.150;2023-02-28T02:18:17;-0.60;99.90
41694;DHT22;27377;50.666;9.150;2023-02-28T02:21:04;-0.60;99.90
41694;DHT22;27377;50.666;9.150;2023-02-28T02:24:10;-0.70;99.90
41694;DHT22;27377;50.666;9.150;2023-02-28T02:32:16;-0.60;99.90
41694;DHT22;27377;50.666;9.150;2023-02-28T02:34:58;-0.60;99.90
41694;DHT22;27377;50.666;9.150;2023-02-28T02:37:48;-0.70;99.90
41694;DHT22;27377;50.666;9.150;2023-02-28T02:40:21;-0.70;99.90
41694;DHT22;27377;50.666;9.150;2023-02-28T02:42:58;-0.80;99.90
41694;DHT22;27377;50.666;9.150;2023-02-28T02:45:47;-0.80;99.90
41694;DHT22;27377;50.666;9.150;2023-02-28T02:48:16;-0.90;99.90
41694;DHT22;27377;50.666;9.150;2023-02-28T02:50:46;-0.80;99.90
41694;DHT22;27377;50.666;9.150;2023-02-28T02:53:17;-0.80;99.90
41694;DHT22;27377;50.666;9.150;2023-02-28T02:55:47;-0.90;99.90
41694;DHT22;27377;50.666;9.150;2023-02-28T02:58:24;-1.00;99.90
41694;DHT22;27377;50.666;9.150;2023-02-28T03:00:54;-1.00;99.90
41694;DHT22;27377;50.666;9.150;2023-02-28T03:03:21;-1.00;99.90
41694;DHT22;27377;50.666;9.150;2023-02-28T03:05:55;-1.00;99.90
41694;DHT22;27377;50.666;9.150;2023-02-28T03:08:22;-1.00;99.90
41694;DHT22;27377;50.666;9.150;2023-02-28T03:10:56;-1.10;99.90
41694;DHT22;27377;50.666;9.150;2023-02-28T03:14:15;-1.10;99.90
41694;DHT22;27377;50.666;9.150;2023-02-28T03:20:02;-1.10;99.90
41694;DHT22;27377;50.666;9.150;2023-02-28T03:22:49;-1.20;99.90
41694;DHT22;27377;50.666;9.150;2023-02-28T03:25:32;-1.30;99.90
41694;DHT22;27377;50.666;9.150;2023-02-28T03:28:16;-1.30;99.90
41694;DHT22;27377;50.666;9.150;2023-02-28T03:33:23;-1.30;99.90
41694;DHT22;27377;50.666;9.150;2023-02-28T03:35:59;-1.30;99.90
41694;DHT22;27377;50.666;9.150;2023-02-28T03:38:38;-1.30;99.90
41694;DHT22;27377;50.666;9.150;2023-02-28T03:43:37;-1.30;99.90
41694;DHT22;27377;50.666;9.150;2023-02-28T03:46:08;-1.40;99.90
41694;DHT22;27377;50.666;9.150;2023-02-28T03:48:48;-1.40;99.90
41694;DHT22;27377;50.666;9.150;2023-02-28T03:51:17;-1.50;99.90
41694;DHT22;27377;50.666;9.150;2023-02-28T03:53:50;-1.50;99.90
41694;DHT22;27377;50.666;9.150;2023-02-28T03:56:37;-1.50;99.90
41694;DHT22;27377;50.666;9.150;2023-02-28T03:59:13;-1.50;99.90
41694;DHT22;27377;50.666;9.150;2023-02-28T04:01:45;-1.50;99.90
41694;DHT22;27377;50.666;9.150;2023-02-28T04:04:12;-1.50;99.90
41694;DHT22;27377;50.666;9.150;2023-02-28T04:06:39;-1.60;99.90
41694;DHT22;27377;50.666;9.150;2023-02-28T04:09:08;-1.60;99.90
41694;DHT22;27377;50.666;9.150;2023-02-28T04:11:45;-1.60;99.90
41694;DHT22;27377;50.666;9.150;2023-02-28T04:14:11;-1.60;99.90
41694;DHT22;27377;50.666;9.150;2023-02-28T04:16:40;-1.70;99.90
41694;DHT22;27377;50.666;9.150;2023-02-28T04:19:07;-1.70;99.90
41694;DHT22;27377;50.666;9.150;2023-02-28T04:21:36;-1.70;99.90
41694;DHT22;27377;50.666;9.150;2023-02-28T04:24:05;-1.80;99.90
41694;DHT22;27377;50.666;9.150;2023-02-28T04:26:32;-1.80;99.90
41694;DHT22;27377;50.666;9.150;2023-02-28T04:28:58;-1.80;99.90
41694;DHT22;27377;50.666;9.150;2023-02-28T04:31:27;-1.80;99.90
41694;DHT22;27377;50.666;9.150;2023-02-28T04:33:53;-1.80;99.90
41694;DHT22;27377;50.666;9.150;2023-02-28T04:36:19;-1.70;99.90
41694;DHT22;27377;50.666;9.150;2023-02-28T04:38:45;-1.80;99.90
41694;DHT22;27377;50.666;9.150;2023-02-28T04:41:15;-1.80;99.90
41694;DHT22;27377;50.666;9.150;2023-02-28T04:43:41;-1.80;99.90
41694;DHT22;27377;50.666;9.150;2023-02-28T04:46:12;-1.90;99.90
41694;DHT22;27377;50.666;9.150;2023-02-28T04:48:39;-1.90;99.90
41694;DHT22;27377;50.666;9.150;2023-02-28T04:51:07;-1.80;99.90
41694;DHT22;27377;50.666;9.150;2023-02-28T04:53:33;-1.90;99.90
41694;DHT22;27377;50.666;9.150;2023-02-28T04:56:00;-1.90;99.90
41694;DHT22;27377;50.666;9.150;2023-02-28T04:58:29;-1.90;99.90
41694;DHT22;27377;50.666;9.150;2023-02-28T05:01:05;-1.90;99.90
41694;DHT22;27377;50.666;9.150;2023-02-28T05:03:42;-1.90;99.90
41694;DHT22;27377;50.666;9.150;2023-02-28T05:06:08;-1.90;99.90
41694;DHT22;27377;50.666;9.150;2023-02-28T05:08:34;-1.90;99.90
41694;DHT22;27377;50.666;9.150;2023-02-28T05:11:00;-1.90;99.90
41694;DHT22;27377;50.666;9.150;2023-02-28T05:13:29;-1.90;99.90
41694;DHT22;27377;50.666;9.150;2023-02-28T05:15:58;-1.90;99.90
41694;DHT22;27377;50.666;9.150;2023-02-28T05:18:24;-1.70;99.90
41694;DHT22;27377;50.666;9.150;2023-02-28T05:20:49;-1.60;99.90
41694;DHT22;27377;50.666;9.150;2023-02-28T05:23:15;-1.50;99.90
41694;DHT22;27377;50.666;9.150;2023-02-28T05:25:42;-1.40;99.90
41694;DHT22;27377;50.666;9.150;2023-02-28T05:28:08;-1.30;99.90
41694;DHT22;27377;50.666;9.150;2023-02-28T05:30:34;-1.20;99.90
41694;DHT22;27377;50.666;9.150;2023-02-28T05:32:59;-1.20;99.90
41694;DHT22;27377;50.666;9.150;2023-02-28T05:35:26;-1.10;99.90
41694;DHT22;27377;50.666;9.150;2023-02-28T05:37:52;-1.00;99.90
41694;DHT22;27377;50.666;9.150;2023-02-28T05:40:20;-0.90;99.90
41694;DHT22;27377;50.666;9.150;2023-02-28T05:42:46;-0.80;99.90
41694;DHT22;27377;50.666;9.150;2023-02-28T05:45:12;-0.80;99.90
41694;DHT22;27377;50.666;9.150;2023-02-28T05:47:38;-0.80;99.90
41694;DHT22;27377;50.666;9.150;2023-02-28T05:50:04;-0.70;99.90
41694;DHT22;27377;50.666;9.150;2023-02-28T05:52:34;-0.60;99.90
41694;DHT22;27377;50.666;9.150;2023-02-28T05:55:00;-0.60;99.90
41694;DHT22;27377;50.666;9.150;2023-02-28T05:57:26;-0.60;99.90
41694;DHT22;27377;50.666;9.150;2023-02-28T05:59:54;-0.60;99.90
41694;DHT22;27377;50.666;9.150;2023-02-28T06:02:20;-0.50;99.90
41694;DHT22;27377;50.666;9.150;2023-02-28T06:04:45;-0.60;99.90
41694;DHT22;27377;50.666;9.150;2023-02-28T06:07:11;-0.50;99.90
41694;DHT22;27377;50.666;9.150;2023-02-28T06:09:37;-0.50;99.90
41694;DHT22;27377;50.666;9.150;2023-02-28T06:12:04;-0.40;99.90
41694;DHT22;27377;50.666;9.150;2023-02-28T06:14:31;-0.40;99.90
41694;DHT22;27377;50.666;9.150;2023-02-28T06:16:58;-0.50;99.90
41694;DHT22;27377;50.666;9.150;2023-02-28T06:19:23;-0.50;99.90
41694;DHT22;27377;50.666;9.150;2023-02-28T06:21:51;-0.50;99.90
41694;DHT22;27377;50.666;9.150;2023-02-28T06:24:19;-0.50;99.90
41694;DHT22;27377;50.666;9.150;2023-02-28T06:26:45;-0.40;99.90
41694;DHT22;27377;50.666;9.150;2023-02-28T06:29:10;-0.40;99.90
41694;DHT22;27377;50.666;9.150;2023-02-28T06:31:37;-0.40;99.90
41694;DHT22;27377;50.666;9.150;2023-02-28T06:34:04;-0.40;99.90
41694;DHT22;27377;50.666;9.150;2023-02-28T06:36:32;-0.40;99.90
41694;DHT22;27377;50.666;9.150;2023-02-28T06:38:57;-0.40;99.90
41694;DHT22;27377;50.666;9.150;2023-02-28T06:41:24;-0.40;99.90
41694;DHT22;27377;50.666;9.150;2023-02-28T06:43:51;-0.40;99.90
41694;DHT22;27377;50.666;9.150;2023-02-28T06:46:17;-0.40;99.90
41694;DHT22;27377;50.666;9.150;2023-02-28T06:48:44;-0.40;99.90
41694;DHT22;27377;50.666;9.150;2023-02-28T06:51:16;-0.40;99.90
41694;DHT22;27377;50.666;9.150;2023-02-28T06:53:42;-0.40;99.90
41694;DHT22;27377;50.666;9.150;2023-02-28T06:56:11;-0.30;99.90
41694;DHT22;27377;50.666;9.150;2023-02-28T06:58:37;-0.30;99.90
41694;DHT22;27377;50.666;9.150;2023-02-28T07:01:04;-0.30;99.90
41694;DHT22;27377;50.666;9.150;2023-02-28T07:03:30;-0.30;99.90
41694;DHT22;27377;50.666;9.150;2023-02-28T07:05:56;-0.30;99.90
41694;DHT22;27377;50.666;9.150;2023-02-28T07:08:26;-0.20;99.90
41694;DHT22;27377;50.666;9.150;2023-02-28T07:10:56;-0.20;99.90
41694;DHT22;27377;50.666;9.150;2023-02-28T07:13:22;-0.20;99.90
41694;DHT22;27377;50.666;9.150;2023-02-28T07:15:59;-0.20;99.90
41694;DHT22;27377;50.666;9.150;2023-02-28T07:18:25;-0.20;99.90
41694;DHT22;27377;50.666;9.150;2023-02-28T07:20:52;-0.20;99.90
41694;DHT22;27377;50.666;9.150;2023-02-28T07:23:18;-0.20;99.90
41694;DHT22;27377;50.666;9.150;2023-02-28T07:25:43;-0.20;99.90
41694;DHT22;27377;50.666;9.150;2023-02-28T07:28:11;-0.20;99.90
41694;DHT22;27377;50.666;9.150;2023-02-28T07:30:36;-0.20;99.90
41694;DHT22;27377;50.666;9.150;2023-02-28T07:33:02;-0.20;99.90
41694;DHT22;27377;50.666;9.150;2023-02-28T07:35:27;-0.20;99.90
41694;DHT22;27377;50.666;9.150;2023-02-28T07:37:53;-0.10;99.90
41694;DHT22;27377;50.666;9.150;2023-02-28T07:40:18;-0.10;99.90
41694;DHT22;27377;50.666;9.150;2023-02-28T07:42:44;-0.10;99.90
41694;DHT22;27377;50.666;9.150;2023-02-28T07:45:11;-0.10;99.90
41694;DHT22;27377;50.666;9.150;2023-02-28T07:47:38;-0.10;99.90
41694;DHT22;27377;50.666;9.150;2023-02-28T07:50:05;-0.10;99.90
41694;DHT22;27377;50.666;9.150;2023-02-28T07:52:31;0.00;99.90
41694;DHT22;27377;50.666;9.150;2023-02-28T07:54:57;0.10;99.90
41694;DHT22;27377;50.666;9.150;2023-02-28T07:57:23;0.10;99.90
41694;DHT22;27377;50.666;9.150;2023-02-28T07:59:48;0.10;99.90
41694;DHT22;27377;50.666;9.150;2023-02-28T08:02:17;0.10;99.90
41694;DHT22;27377;50.666;9.150;2023-02-28T08:04:44;0.10;99.90
41694;DHT22;27377;50.666;9.150;2023-02-28T08:07:09;0.10;99.90
41694;DHT22;27377;50.666;9.150;2023-02-28T08:09:39;0.20;99.90
41694;DHT22;27377;50.666;9.150;2023-02-28T08:12:05;0.20;99.90
41694;DHT22;27377;50.666;9.150;2023-02-28T08:14:31;0.20;99.90
41694;DHT22;27377;50.666;9.150;2023-02-28T08:16:56;0.20;99.90
41694;DHT22;27377;50.666;9.150;2023-02-28T08:19:22;0.20;99.90
41694;DHT22;27377;50.666;9.150;2023-02-28T08:21:47;0.20;99.90
41694;DHT22;27377;50.666;9.150;2023-02-28T08:24:13;0.30;99.90
41694;DHT22;27377;50.666;9.150;2023-02-28T08:26:39;0.30;99.90
41694;DHT22;27377;50.666;9.150;2023-02-28T08:29:04;0.30;99.90
41694;DHT22;27377;50.666;9.150;2023-02-28T08:31:30;0.40;99.90
41694;DHT22;27377;50.666;9.150;2023-02-28T08:33:55;0.40;99.90
41694;DHT22;27377;50.666;9.150;2023-02-28T08:36:24;0.50;99.90
41694;DHT22;27377;50.666;9.150;2023-02-28T08:38:50;0.60;99.90
41694;DHT22;27377;50.666;9.150;2023-02-28T08:41:15;0.60;99.90
41694;DHT22;27377;50.666;9.150;2023-02-28T08:43:41;0.50;99.90
41694;DHT22;27377;50.666;9.150;2023-02-28T08:46:07;0.60;99.90
41694;DHT22;27377;50.666;9.150;2023-02-28T08:48:34;0.60;99.90
41694;DHT22;27377;50.666;9.150;2023-02-28T08:51:03;0.60;99.90
41694;DHT22;27377;50.666;9.150;2023-02-28T08:53:30;0.60;99.90
41694;DHT22;27377;50.666;9.150;2023-02-28T08:56:11;0.60;99.90
41694;DHT22;27377;50.666;9.150;2023-02-28T08:58:37;0.60;99.90
41694;DHT22;27377;50.666;9.150;2023-02-28T09:01:10;0.70;99.90
41694;DHT22;27377;50.666;9.150;2023-02-28T09:03:36;0.70;99.90
41694;DHT22;27377;50.666;9.150;2023-02-28T09:06:01;0.70;99.90
41694;DHT22;27377;50.666;9.150;2023-02-28T09:08:29;0.70;99.90
41694;DHT22;27377;50.666;9.150;2023-02-28T09:10:56;0.70;99.90
41694;DHT22;27377;50.666;9.150;2023-02-28T09:13:23;0.80;99.90
41694;DHT22;27377;50.666;9.150;2023-02-28T09:15:49;0.80;99.90
41694;DHT22;27377;50.666;9.150;2023-02-28T09:18:15;0.90;99.90
41694;DHT22;27377;50.666;9.150;2023-02-28T09:20:41;0.90;99.90
41694;DHT22;27377;50.666;9.150;2023-02-28T09:23:08;0.90;99.90
41694;DHT22;27377;50.666;9.150;2023-02-28T09:25:34;0.90;99.90
41694;DHT22;27377;50.666;9.150;2023-02-28T09:28:00;0.90;99.90
41694;DHT22;27377;50.666;9.150;2023-02-28T09:30:26;0.90;99.90
41694;DHT22;27377;50.666;9.150;2023-02-28T09:32:51;0.90;99.90
41694;DHT22;27377;50.666;9.150;2023-02-28T09:35:23;0.90;99.90
41694;DHT22;27377;50.666;9.150;2023-02-28T09:37:50;0.90;99.90
41694;DHT22;27377;50.666;9.150;2023-02-28T09:40:18;1.00;99.90
41694;DHT22;27377;50.666;9.150;2023-02-28T09:42:47;1.00;99.90
41694;DHT22;27377;50.666;9.150;2023-02-28T09:45:28;1.00;99.90
41694;DHT22;27377;50.666;9.150;2023-02-28T09:47:56;1.10;99.90
41694;DHT22;27377;50.666;9.150;2023-02-28T09:50:29;1.10;99.90
41694;DHT22;27377;50.666;9.150;2023-02-28T09:52:56;1.20;99.90
41694;DHT22;27377;50.666;9.150;2023-02-28T09:55:37;1.20;99.90
41694;DHT22;27377;50.666;9.150;2023-02-28T09:58:05;1.20;99.90
41694;DHT22;27377;50.666;9.150;2023-02-28T10:00:37;1.30;99.90
41694;DHT22;27377;50.666;9.150;2023-02-28T10:05:57;1.30;99.90
41694;DHT22;27377;50.666;9.150;2023-02-28T10:08:40;1.30;99.90
41694;DHT22;27377;50.666;9.150;2023-02-28T10:11:10;1.40;99.90
41694;DHT22;27377;50.666;9.150;2023-02-28T10:13:48;1.40;99.90
41694;DHT22;27377;50.666;9.150;2023-02-28T10:16:27;1.40;99.90
41694;DHT22;27377;50.666;9.150;2023-02-28T10:18:56;1.40;99.90
41694;DHT22;27377;50.666;9.150;2023-02-28T10:21:26;1.50;99.90
41694;DHT22;27377;50.666;9.150;2023-02-28T10:24:02;1.50;99.90
41694;DHT22;27377;50.666;9.150;2023-02-28T10:26:30;1.50;99.90
41694;DHT22;27377;50.666;9.150;2023-02-28T10:28:56;1.50;99.90
41694;DHT22;27377;50.666;9.150;2023-02-28T10:31:21;1.60;99.90
41694;DHT22;27377;50.666;9.150;2023-02-28T10:33:48;1.60;99.90
41694;DHT22;27377;50.666;9.150;2023-02-28T10:36:16;1.60;99.90
41694;DHT22;27377;50.666;9.150;2023-02-28T10:38:43;1.70;99.90
41694;DHT22;27377;50.666;9.150;2023-02-28T10:41:11;1.70;99.90
41694;DHT22;27377;50.666;9.150;2023-02-28T10:43:38;1.60;99.90
41694;DHT22;27377;50.666;9.150;2023-02-28T10:46:15;1.50;99.90
41694;DHT22;27377;50.666;9.150;2023-02-28T10:49:01;1.60;99.80
41694;DHT22;27377;50.666;9.150;2023-02-28T10:51:35;1.50;99.20
41694;DHT22;27377;50.666;9.150;2023-02-28T10:54:02;1.50;99.30
41694;DHT22;27377;50.666;9.150;2023-02-28T10:56:29;1.40;99.40
41694;DHT22;27377;50.666;9.150;2023-02-28T10:59:28;1.40;99.40
41694;DHT22;27377;50.666;9.150;2023-02-28T11:01:53;1.40;99.90
41694;DHT22;27377;50.666;9.150;2023-02-28T11:07:00;1.50;99.90
41694;DHT22;27377;50.666;9.150;2023-02-28T11:09:35;1.60;99.90
41694;DHT22;27377;50.666;9.150;2023-02-28T11:12:10;1.60;99.50
41694;DHT22;27377;50.666;9.150;2023-02-28T11:14:55;1.50;99.70
41694;DHT22;27377;50.666;9.150;2023-02-28T11:17:28;1.50;99.80
41694;DHT22;27377;50.666;9.150;2023-02-28T11:19:57;1.60;99.50
41694;DHT22;27377;50.666;9.150;2023-02-28T11:22:27;1.50;99.00
41694;DHT22;27377;50.666;9.150;2023-02-28T11:24:59;1.50;99.60
41694;DHT22;27377;50.666;9.150;2023-02-28T11:29:59;1.50;99.80
41694;DHT22;27377;50.666;9.150;2023-02-28T11:32:30;1.60;99.80
41694;DHT22;27377;50.666;9.150;2023-02-28T11:37:37;1.60;99.90
41694;DHT22;27377;50.666;9.150;2023-02-28T11:40:12;1.60;99.90
41694;DHT22;27377;50.666;9.150;2023-02-28T11:43:01;1.60;99.90
41694;DHT22;27377;50.666;9.150;2023-02-28T11:45:49;1.60;99.90
41694;DHT22;27377;50.666;9.150;2023-02-28T11:48:27;1.60;99.90
41694;DHT22;27377;50.666;9.150;2023-02-28T11:54:04;1.70;99.80
41694;DHT22;27377;50.666;9.150;2023-02-28T11:56:43;1.70;99.80
41694;DHT22;27377;50.666;9.150;2023-02-28T12:02:29;1.60;99.20
41694;DHT22;27377;50.666;9.150;2023-02-28T12:05:15;1.60;99.70
41694;DHT22;27377;50.666;9.150;2023-02-28T12:08:01;1.60;99.90
41694;DHT22;27377;50.666;9.150;2023-02-28T12:10:30;1.60;99.90
41694;DHT22;27377;50.666;9.150;2023-02-28T12:13:12;1.70;99.90
41694;DHT22;27377;50.666;9.150;2023-02-28T12:16:05;1.70;99.90
41694;DHT22;27377;50.666;9.150;2023-02-28T12:19:04;1.70;99.90
41694;DHT22;27377;50.666;9.150;2023-02-28T12:27:02;1.90;99.40
41694;DHT22;27377;50.666;9.150;2023-02-28T12:32:12;1.90;99.30
41694;DHT22;27377;50.666;9.150;2023-02-28T12:34:46;1.90;99.40
41694;DHT22;27377;50.666;9.150;2023-02-28T12:37:24;1.90;99.80
41694;DHT22;27377;50.666;9.150;2023-02-28T12:40:01;2.00;99.80
41694;DHT22;27377;50.666;9.150;2023-02-28T12:42:33;2.00;99.90
41694;DHT22;27377;50.666;9.150;2023-02-28T12:45:20;2.10;99.90
41694;DHT22;27377;50.666;9.150;2023-02-28T12:47:52;2.10;99.90
41694;DHT22;27377;50.666;9.150;2023-02-28T12:50:21;2.20;99.90
41694;DHT22;27377;50.666;9.150;2023-02-28T13:01:16;2.40;99.90
41694;DHT22;27377;50.666;9.150;2023-02-28T13:09:15;2.40;99.90
41694;DHT22;27377;50.666;9.150;2023-02-28T13:11:44;2.50;99.70
41694;DHT22;27377;50.666;9.150;2023-02-28T13:17:01;2.40;99.90
41694;DHT22;27377;50.666;9.150;2023-02-28T13:19:33;2.50;99.70
41694;DHT22;27377;50.666;9.150;2023-02-28T13:22:01;2.50;99.90
41694;DHT22;27377;50.666;9.150;2023-02-28T13:24:50;2.50;99.90
41694;DHT22;27377;50.666;9.150;2023-02-28T13:27:35;2.40;99.90
41694;DHT22;27377;50.666;9.150;2023-02-28T13:33:28;2.50;99.90
41694;DHT22;27377;50.666;9.150;2023-02-28T13:38:48;2.60;99.90
41694;DHT22;27377;50.666;9.150;2023-02-28T13:51:52;2.60;99.90
41694;DHT22;27377;50.666;9.150;2023-02-28T13:59:38;2.70;99.90
41694;DHT22;27377;50.666;9.150;2023-02-28T14:02:34;2.70;99.80
41694;DHT22;27377;50.666;9.150;2023-02-28T14:05:13;2.80;99.70
41694;DHT22;27377;50.666;9.150;2023-02-28T14:08:04;2.80;99.90
41694;DHT22;27377;50.666;9.150;2023-02-28T14:10:34;2.70;99.90
41694;DHT22;27377;50.666;9.150;2023-02-28T14:13:36;2.70;99.90
41694;DHT22;27377;50.666;9.150;2023-02-28T14:16:04;2.70;99.90
41694;DHT22;27377;50.666;9.150;2023-02-28T14:18:34;2.70;99.90
41694;DHT22;27377;50.666;9.150;2023-02-28T14:21:26;2.80;99.80
41694;DHT22;27377;50.666;9.150;2023-02-28T14:29:37;2.80;99.90
41694;DHT22;27377;50.666;9.150;2023-02-28T14:32:28;2.80;99.80
41694;DHT22;27377;50.666;9.150;2023-02-28T14:37:47;2.80;99.70
41694;DHT22;27377;50.666;9.150;2023-02-28T14:40:24;2.90;99.90
41694;DHT22;27377;50.666;9.150;2023-02-28T14:42:59;2.90;99.90
41694;DHT22;27377;50.666;9.150;2023-02-28T14:45:29;2.90;99.70
41694;DHT22;27377;50.666;9.150;2023-02-28T14:47:56;2.90;99.80
41694;DHT22;27377;50.666;9.150;2023-02-28T14:50:27;2.90;99.50
41694;DHT22;27377;50.666;9.150;2023-02-28T14:52:55;2.90;99.40
41694;DHT22;27377;50.666;9.150;2023-02-28T14:55:26;2.80;99.50
41694;DHT22;27377;50.666;9.150;2023-02-28T14:57:57;2.90;99.70
41694;DHT22;27377;50.666;9.150;2023-02-28T15:00:27;2.90;99.80
41694;DHT22;27377;50.666;9.150;2023-02-28T15:02:54;2.90;99.90
41694;DHT22;27377;50.666;9.150;2023-02-28T15:05:27;2.90;99.70
41694;DHT22;27377;50.666;9.150;2023-02-28T15:08:16;2.90;99.70
41694;DHT22;27377;50.666;9.150;2023-02-28T15:10:44;2.90;98.80
41694;DHT22;27377;50.666;9.150;2023-02-28T15:13:14;2.90;98.60
41694;DHT22;27377;50.666;9.150;2023-02-28T15:16:02;2.90;99.40
41694;DHT22;27377;50.666;9.150;2023-02-28T15:18:43;2.90;99.70
41694;DHT22;27377;50.666;9.150;2023-02-28T15:21:22;2.90;99.80
41694;DHT22;27377;50.666;9.150;2023-02-28T15:23:55;2.90;99.90
41694;DHT22;27377;50.666;9.150;2023-02-28T15:26:29;2.90;99.80
41694;DHT22;27377;50.666;9.150;2023-02-28T15:29:06;2.90;99.90
41694;DHT22;27377;50.666;9.150;2023-02-28T15:31:39;2.90;99.80
41694;DHT22;27377;50.666;9.150;2023-02-28T15:34:12;2.90;99.90
41694;DHT22;27377;50.666;9.150;2023-02-28T15:36:40;2.90;99.90
41694;DHT22;27377;50.666;9.150;2023-02-28T15:39:24;2.90;99.90
41694;DHT22;27377;50.666;9.150;2023-02-28T15:42:10;2.90;99.90
41694;DHT22;27377;50.666;9.150;2023-02-28T15:44:36;2.90;99.90
41694;DHT22;27377;50.666;9.150;2023-02-28T15:47:44;2.90;99.90
41694;DHT22;27377;50.666;9.150;2023-02-28T15:50:03;2.90;99.90
41694;DHT22;27377;50.666;9.150;2023-02-28T15:52:41;2.80;99.70
41694;DHT22;27377;50.666;9.150;2023-02-28T15:57:41;2.80;99.90
41694;DHT22;27377;50.666;9.150;2023-02-28T16:00:14;2.80;99.80
41694;DHT22;27377;50.666;9.150;2023-02-28T16:02:40;2.80;99.80
41694;DHT22;27377;50.666;9.150;2023-02-28T16:07:37;2.80;99.90
41694;DHT22;27377;50.666;9.150;2023-02-28T16:10:05;2.80;99.90
41694;DHT22;27377;50.666;9.150;2023-02-28T16:12:32;2.80;99.80
41694;DHT22;27377;50.666;9.150;2023-02-28T16:15:01;2.80;99.70
41694;DHT22;27377;50.666;9.150;2023-02-28T16:17:35;2.70;99.70
41694;DHT22;27377;50.666;9.150;2023-02-28T16:20:15;2.70;99.90
41694;DHT22;27377;50.666;9.150;2023-02-28T16:22:44;2.70;99.90
41694;DHT22;27377;50.666;9.150;2023-02-28T16:25:16;2.70;99.90
41694;DHT22;27377;50.666;9.150;2023-02-28T16:27:44;2.60;99.90
41694;DHT22;27377;50.666;9.150;2023-02-28T16:30:17;2.60;99.90
41694;DHT22;27377;50.666;9.150;2023-02-28T16:32:44;2.60;99.90
41694;DHT22;27377;50.666;9.150;2023-02-28T16:35:11;2.60;99.90
41694;DHT22;27377;50.666;9.150;2023-02-28T16:37:39;2.50;99.90
41694;DHT22;27377;50.666;9.150;2023-02-28T16:40:17;2.50;99.90
41694;DHT22;27377;50.666;9.150;2023-02-28T16:42:44;2.50;99.90
41694;DHT22;27377;50.666;9.150;2023-02-28T16:45:16;2.40;99.90
41694;DHT22;27377;50.666;9.150;2023-02-28T16:47:43;2.40;99.90
41694;DHT22;27377;50.666;9.150;2023-02-28T16:50:22;2.40;99.90
41694;DHT22;27377;50.666;9.150;2023-02-28T16:52:49;2.40;99.90
41694;DHT22;27377;50.666;9.150;2023-02-28T16:55:15;2.30;99.90
41694;DHT22;27377;50.666;9.150;2023-02-28T16:57:45;2.30;99.90
41694;DHT22;27377;50.666;9.150;2023-02-28T17:00:18;2.20;99.90
41694;DHT22;27377;50.666;9.150;2023-02-28T17:02:46;2.20;99.90
41694;DHT22;27377;50.666;9.150;2023-02-28T17:05:12;2.10;99.90
41694;DHT22;27377;50.666;9.150;2023-02-28T17:07:40;2.10;99.90
41694;DHT22;27377;50.666;9.150;2023-02-28T17:10:22;2.00;99.90
41694;DHT22;27377;50.666;9.150;2023-02-28T17:12:48;2.00;99.90
41694;DHT22;27377;50.666;9.150;2023-02-28T17:15:16;1.90;99.90
41694;DHT22;27377;50.666;9.150;2023-02-28T17:17:43;1.90;99.90
41694;DHT22;27377;50.666;9.150;2023-02-28T17:20:14;1.80;99.90
41694;DHT22;27377;50.666;9.150;2023-02-28T17:22:41;1.80;99.90
41694;DHT22;27377;50.666;9.150;2023-02-28T17:25:10;1.80;99.90
41694;DHT22;27377;50.666;9.150;2023-02-28T17:27:37;1.80;99.90
41694;DHT22;27377;50.666;9.150;2023-02-28T17:32:41;1.80;99.90
41694;DHT22;27377;50.666;9.150;2023-02-28T17:35:10;1.80;99.90
41694;DHT22;27377;50.666;9.150;2023-02-28T17:37:36;1.80;99.90
41694;DHT22;27377;50.666;9.150;2023-02-28T17:40:02;1.80;99.90